Buoy 13516

sailwx.info

Track history (hours):
 
Tides and Currents Weather Stations Pressure Air Temp Water Temp Dewpoint Dewpoint Depression Visibility Wind Speed Wind Dir Waves Ship Positions

Ao Chao Yang 13516

Last reported at 2015-May-06 08:39 UTC. Time now 2015-May-06 10:28 UTC.
Position N 24°23' W 042°43'.

Length 20 m.

Type: Fishing. MMSI: 412469022.

Water temperature 24.0 ° C

Date/timePositionNaut miles runAvg speedWind from/ knotsBaromVisibWave heightAir tempDewpointWater temp
2015-May-06 08:39N 24°23' W 042°43'1 1.3 24.0
2015-May-06 07:48N 24°24' W 042°43'0 0.0 24.0
2015-May-06 07:39N 24°24' W 042°43'0 0.2 24.0
2015-May-06 07:01N 24°24' W 042°43'1 1.2 24.1
2015-May-06 05:54N 24°23' W 042°42'1 0.5
2015-May-06 04:13N 24°24' W 042°41'228.0 24.2
2015-May-06 04:09N 24°25' W 042°39'0 0.2 24.2
2015-May-06 01:39N 24°25' W 042°39'0 0.2 24.4
2015-May-06 00:58N 24°25' W 042°39'1 9.1 24.4
2015-May-06 00:54N 24°25' W 042°38'0 0.0
2015-May-06 00:07N 24°25' W 042°38'0 0.0 24.3
2015-May-05 23:19N 24°25' W 042°38'0 1.6 24.4
2015-May-05 23:16N 24°25' W 042°38'1 1.1 24.4
2015-May-05 22:19N 24°26' W 042°37'0 0.5 24.5
2015-May-05 21:52N 24°26' W 042°37'0 0.2 24.6
2015-May-05 20:16N 24°26' W 042°37'117.1 24.9
2015-May-05 20:13N 24°27' W 042°37'0 0.3 24.9
2015-May-05 18:34N 24°27' W 042°36'0 0.3 24.8
2015-May-05 17:27N 24°27' W 042°36'0 0.0 25.1
2015-May-05 15:48N 24°27' W 042°36'0 1.4 25.0
2015-May-05 15:37N 24°28' W 042°37'0 0.0 24.9
2015-May-05 14:30N 24°28' W 042°37'0 0.0 24.7
2015-May-05 13:46N 24°28' W 042°37'0 0.0 24.8
2015-May-05 13:43N 24°28' W 042°37'1 0.6 24.8
2015-May-05 12:54N 24°27' W 042°36'0 1.3 24.5
2015-May-05 12:45N 24°27' W 042°36'0 0.0 24.5
2015-May-05 12:07N 24°27' W 042°36'0 0.0 24.4
2015-May-05 12:04N 24°27' W 042°36'0 3.4 24.4
2015-May-05 12:00N 24°27' W 042°36'0 4.5 24.4
2015-May-05 11:57N 24°27' W 042°36'0 0.0 24.4
2015-May-05 11:09N 24°27' W 042°36'0 7.9
2015-May-05 11:07N 24°27' W 042°36'0 0.0 24.2
2015-May-05 09:54N 24°27' W 042°36'1 1.0 24.1
2015-May-05 08:52N 24°27' W 042°35'0 2.7 24.1
2015-May-05 08:48N 24°26' W 042°35'0 0.0 24.1
2015-May-05 08:21N 24°26' W 042°35'0 0.4 24.1
2015-May-05 07:13N 24°27' W 042°34'0 1.6
2015-May-05 07:09N 24°27' W 042°34'116.6 24.0
2015-May-05 07:06N 24°27' W 042°33'0 0.0 24.1
2015-May-05 06:07N 24°27' W 042°33'0 2.2 24.0
2015-May-05 06:04N 24°27' W 042°33'1 9.8 24.0
2015-May-05 05:58N 24°27' W 042°32'0 0.0 24.0
2015-May-05 04:30N 24°27' W 042°32'1 8.7 24.1
2015-May-05 04:24N 24°27' W 042°33'215.6 24.1
2015-May-05 04:16N 24°27' W 042°30'0 0.0
2015-May-05 01:18N 24°27' W 042°30'1 0.9 24.3
2015-May-05 00:24N 24°28' W 042°30'0 0.4 24.4
2015-May-04 23:39N 24°28' W 042°29'0 0.0
2015-May-04 23:37N 24°28' W 042°29'0 1.1 24.5
2015-May-04 23:34N 24°28' W 042°29'113.1 24.5
2015-May-04 23:30N 24°28' W 042°28'0 0.0 24.5
2015-May-04 22:46N 24°28' W 042°28'223.1 24.5
2015-May-04 22:42N 24°29' W 042°27'1 0.2 24.5
2015-May-04 20:39N 24°29' W 042°27'0 0.0 25.3
2015-May-04 20:27N 24°29' W 042°27'1 0.5 25.3
2015-May-04 17:39N 24°30' W 042°26'1 0.6 25.2
2015-May-04 15:58N 24°31' W 042°26'0 0.0 25.1
2015-May-04 15:54N 24°31' W 042°26'0 0.1 25.0
2015-May-04 14:04N 24°31' W 042°26'0 0.1 24.6
2015-May-04 11:30N 24°31' W 042°26'0 4.9 23.9
2015-May-04 11:24N 24°31' W 042°26'0 0.0 23.9
2015-May-04 10:27N 24°31' W 042°26'1 0.8 23.9
2015-May-04 09:04N 24°30' W 042°24'0 7.7 23.9
2015-May-04 09:01N 24°30' W 042°24'1 0.5 23.9
2015-May-04 06:18N 24°30' W 042°23'0 3.0 24.0
2015-May-04 06:13N 24°30' W 042°22'1 8.9 24.0
2015-May-04 06:09N 24°30' W 042°22'0 0.1
2015-May-04 04:36N 24°30' W 042°22'2 0.5 24.2
2015-May-04 00:49N 24°31' W 042°20'0 0.4 24.4
2015-May-04 00:03N 24°31' W 042°20'0 1.7 24.4
2015-May-03 23:54N 24°31' W 042°20'2 2.7 24.5
2015-May-03 23:00N 24°32' W 042°18'0 0.0 24.5
2015-May-03 21:06N 24°32' W 042°18'1 0.8 25.0
2015-May-03 20:03N 24°32' W 042°17'0 3.0 25.0
2015-May-03 19:54N 24°32' W 042°17'0 0.3
2015-May-03 18:54N 24°32' W 042°17'1 1.1 25.3
2015-May-03 17:51N 24°33' W 042°16'0 0.3 25.5
2015-May-03 16:09N 24°33' W 042°15'2 0.5 25.2
2015-May-03 12:42N 24°34' W 042°14'1 0.4 24.1
2015-May-03 11:04N 24°35' W 042°14'0 0.0 23.9
2015-May-03 09:52N 24°35' W 042°14'0 1.4 23.9
2015-May-03 09:42N 24°35' W 042°13'0 0.8
2015-May-03 09:22N 24°34' W 042°13'017.0 23.9
2015-May-03 09:21N 24°35' W 042°13'0 3.5 23.9
2015-May-03 09:18N 24°35' W 042°13'0 7.7 23.9
2015-May-03 09:15N 24°35' W 042°13'0 4.0 23.9
2015-May-03 09:09N 24°35' W 042°13'0 0.5 23.9
2015-May-03 08:06N 24°35' W 042°13'1 0.6 23.8
2015-May-03 06:30N 24°35' W 042°12'1 4.4 23.7
2015-May-03 06:21N 24°35' W 042°11'1 0.3 23.7
2015-May-03 01:04N 24°35' W 042°09'2 0.4 23.9
2015-May-02 20:49N 24°35' W 042°08'2 1.3 24.5
2015-May-02 19:09N 24°37' W 042°06'0 0.0 24.8
2015-May-02 18:07N 24°37' W 042°06'0 0.6 25.1
2015-May-02 18:01N 24°37' W 042°06'1 0.4 25.1
2015-May-02 16:09N 24°38' W 042°06'0 0.0 24.8
2015-May-02 13:54N 24°38' W 042°06'1 0.9 24.5
2015-May-02 13:09N 24°38' W 042°05'0 0.3 24.2
2015-May-02 12:09N 24°39' W 042°06'0 7.0 24.2
2015-May-02 12:06N 24°39' W 042°05'1 0.3 24.2
2015-May-02 10:16N 24°38' W 042°06'2 0.4 23.8
2015-May-02 04:54N 24°39' W 042°04'2 1.0 23.9
2015-May-02 03:16N 24°40' W 042°02'0 0.1 23.9
2015-May-01 23:48N 24°41' W 042°03'0 0.4 24.0
2015-May-01 23:01N 24°41' W 042°02'217.5 24.1
2015-May-01 22:54N 24°42' W 042°01'1 1.7 24.1
2015-May-01 22:06N 24°41' W 042°02'0 0.0 24.1
2015-May-01 21:52N 24°41' W 042°02'0 0.0 24.1
2015-May-01 21:00N 24°41' W 042°02'3 0.5 24.1
2015-May-01 14:49N 24°43' W 041°59'2 0.5 24.1
2015-May-01 10:51N 24°45' W 041°58'0 0.0 23.6
2015-May-01 10:22N 24°45' W 041°58'0 0.0 23.6
2015-May-01 09:40N 24°45' W 041°58'1 0.8 23.6
2015-May-01 08:54N 24°44' W 041°58'1 4.9 23.6
2015-May-01 08:46N 24°45' W 041°58'0 0.4 23.6
2015-May-01 07:58N 24°45' W 041°58'0 0.1 23.6
2015-May-01 07:04N 24°45' W 041°58'0 0.6 23.6
2015-May-01 06:18N 24°45' W 041°58'0 0.1 23.6
2015-May-01 05:09N 24°45' W 041°58'111.1 23.6
2015-May-01 05:03N 24°46' W 041°57'0 0.0 23.6
2015-May-01 03:28N 24°46' W 041°57'1 0.4 23.7
2015-May-01 01:46N 24°47' W 041°57'1 0.3 23.7
2015-Apr-30 23:13N 24°47' W 041°56'0 0.2 23.8
2015-Apr-30 21:09N 24°47' W 041°56'0 0.3 23.9
2015-Apr-30 19:54N 24°47' W 041°55'0 1.1 23.9
2015-Apr-30 19:31N 24°47' W 041°56'0 0.8 24.0
2015-Apr-30 18:57N 24°47' W 041°56'1 1.8 24.0
2015-Apr-30 18:22N 24°48' W 041°55'0 0.0 24.2
2015-Apr-30 18:19N 24°48' W 041°55'1 2.9 24.2
2015-Apr-30 17:51N 24°48' W 041°54'0 0.0 24.3
2015-Apr-30 16:43N 24°48' W 041°54'0 0.0 24.4
2015-Apr-30 16:39N 24°48' W 041°54'0 0.0 24.4
2015-Apr-30 15:01N 24°48' W 041°54'1 1.7 24.1
2015-Apr-30 14:33N 24°49' W 041°54'0 0.0 24.0
2015-Apr-30 13:48N 24°49' W 041°54'1 0.7 24.0
2015-Apr-30 12:51N 24°50' W 041°53'110.6 23.9
2015-Apr-30 12:48N 24°50' W 041°54'0 0.0 23.9
2015-Apr-30 12:09N 24°50' W 041°54'0 0.0 23.7
2015-Apr-30 12:06N 24°50' W 041°54'0 3.6 23.6
2015-Apr-30 12:00N 24°51' W 041°54'0 0.0 23.6
2015-Apr-30 11:13N 24°51' W 041°54'1 0.4 23.5
2015-Apr-30 09:52N 24°51' W 041°54'0 4.2 23.4
2015-Apr-30 09:48N 24°51' W 041°54'0 0.0 23.4
2015-Apr-30 09:25N 24°51' W 041°54'0 0.0 23.4
2015-Apr-30 09:16N 24°51' W 041°54'0 0.2 23.4
2015-Apr-30 08:09N 24°51' W 041°54'130.7 23.4
2015-Apr-30 08:07N 24°50' W 041°53'111.9 23.4
2015-Apr-30 08:03N 24°51' W 041°53'0 0.0 23.4
2015-Apr-30 07:42N 24°51' W 041°53'0 0.0 23.4
2015-Apr-30 07:37N 24°51' W 041°53'1 1.0 23.4
2015-Apr-30 07:01N 24°51' W 041°54'1 1.9 23.4
2015-Apr-30 06:28N 24°50' W 041°53'0 0.0 23.4
2015-Apr-30 05:21N 24°50' W 041°53'0 0.0 23.4
2015-Apr-30 05:12N 24°50' W 041°53'3 0.4
2015-Apr-29 21:04N 24°53' W 041°52'1 0.4 23.7
2015-Apr-29 18:03N 24°54' W 041°51'0 0.0 23.8
2015-Apr-29 16:54N 24°54' W 041°51'1 0.6 23.9
2015-Apr-29 15:12N 24°55' W 041°51'114.2 23.9
2015-Apr-29 15:09N 24°55' W 041°50'3 0.6 23.8
2015-Apr-29 10:01N 24°57' W 041°52'1 0.4 23.3
2015-Apr-29 08:19N 24°58' W 041°53'1 4.0 23.2
2015-Apr-29 08:06N 24°58' W 041°52'0 0.0 23.3
2015-Apr-29 07:07N 24°58' W 041°52'1 0.5 23.3
2015-Apr-29 03:54N 24°59' W 041°51'0 0.0 23.3
2015-Apr-29 00:52N 24°59' W 041°51'0 0.2 23.4
2015-Apr-29 00:06N 24°59' W 041°51'0 0.0 23.4
2015-Apr-29 00:01N 24°59' W 041°51'0 0.0 23.4
2015-Apr-28 23:57N 24°59' W 041°51'0 0.1 23.4
2015-Apr-28 23:07N 24°59' W 041°51'229.6 23.4
2015-Apr-28 23:03N 24°57' W 041°51'3 1.1 23.4
2015-Apr-28 20:49N 24°60' W 041°51'0 0.1 23.5
2015-Apr-28 19:54N 24°60' W 041°52'0 0.2 23.5
2015-Apr-28 18:15N 24°60' W 041°51'0 3.3 23.7
2015-Apr-28 18:07N 25°00' W 041°51'0 0.0 23.7
2015-Apr-28 17:06N 25°00' W 041°51'2 0.3 23.7
2015-Apr-28 11:54N 25°02' W 041°51'1 1.6 23.3
2015-Apr-28 11:09N 25°03' W 041°51'0 0.0 23.2
2015-Apr-28 10:15N 25°03' W 041°51'1 0.2 23.2
2015-Apr-28 06:58N 25°04' W 041°51'0 0.4 23.2
2015-Apr-28 05:42N 25°04' W 041°51'115.7 23.2
2015-Apr-28 05:37N 25°05' W 041°52'0 0.0 23.2
2015-Apr-28 04:06N 25°05' W 041°52'0 0.0 23.2
2015-Apr-28 04:03N 25°05' W 041°52'1 0.2 23.2
2015-Apr-27 20:12N 25°06' W 041°53'1 9.7 23.4
2015-Apr-27 20:07N 25°06' W 041°54'0 0.0 23.4
2015-Apr-27 19:49N 25°06' W 041°54'2 0.3 23.4
2015-Apr-27 13:54N 25°07' W 041°54'1 0.2 23.3
2015-Apr-27 08:54N 25°08' W 041°54'1 0.6 23.1
2015-Apr-27 07:18N 25°08' W 041°55'0 0.0 23.2
2015-Apr-27 07:07N 25°08' W 041°55'121.1 23.2
2015-Apr-27 07:04N 25°09' W 041°55'1 0.4 23.2
2015-Apr-27 05:52N 25°09' W 041°54'1 0.6 23.2
2015-Apr-27 04:09N 25°10' W 041°55'143.3 23.2
2015-Apr-27 04:07N 25°11' W 041°56'1 0.3 23.2
2015-Apr-27 00:45N 25°11' W 041°57'0 0.0 23.2
2015-Apr-26 23:54N 25°11' W 041°57'0 6.5 23.2
2015-Apr-26 23:51N 25°11' W 041°56'0 0.3 23.2
2015-Apr-26 23:04N 25°11' W 041°56'113.8 23.2
2015-Apr-26 22:58N 25°11' W 041°58'0 0.0 23.2
2015-Apr-26 22:09N 25°11' W 041°58'2 0.2 23.2
2015-Apr-26 10:54N 25°12' W 041°59'1 0.4 23.1
2015-Apr-26 09:18N 25°12' W 041°59'   23.1
Track history (hours):
 
Tides and Currents Weather Stations Pressure Air Temp Water Temp Dewpoint Dewpoint Depression Visibility Wind Speed Wind Dir Waves Ship Positions

Ao Chao Yang 13516

Last reported at 2015-May-06 08:39 UTC. Time now 2015-May-06 10:28 UTC.
Position N 24°23' W 042°43'.

Length 20 m.

Type: Fishing. MMSI: 412469022.

Water temperature 24.0 ° C

Date/timePositionNaut miles runAvg speedWind from/ knotsBaromVisibWave heightAir tempDewpointWater temp
2015-May-06 08:39N 24°23' W 042°43'1 1.3 24.0
2015-May-06 07:48N 24°24' W 042°43'0 0.0 24.0
2015-May-06 07:39N 24°24' W 042°43'0 0.2 24.0
2015-May-06 07:01N 24°24' W 042°43'1 1.2 24.1
2015-May-06 05:54N 24°23' W 042°42'1 0.5
2015-May-06 04:13N 24°24' W 042°41'228.0 24.2
2015-May-06 04:09N 24°25' W 042°39'0 0.2 24.2
2015-May-06 01:39N 24°25' W 042°39'0 0.2 24.4
2015-May-06 00:58N 24°25' W 042°39'1 9.1 24.4
2015-May-06 00:54N 24°25' W 042°38'0 0.0
2015-May-06 00:07N 24°25' W 042°38'0 0.0 24.3
2015-May-05 23:19N 24°25' W 042°38'0 1.6 24.4
2015-May-05 23:16N 24°25' W 042°38'1 1.1 24.4
2015-May-05 22:19N 24°26' W 042°37'0 0.5 24.5
2015-May-05 21:52N 24°26' W 042°37'0 0.2 24.6
2015-May-05 20:16N 24°26' W 042°37'117.1 24.9
2015-May-05 20:13N 24°27' W 042°37'0 0.3 24.9
2015-May-05 18:34N 24°27' W 042°36'0 0.3 24.8
2015-May-05 17:27N 24°27' W 042°36'0 0.0 25.1
2015-May-05 15:48N 24°27' W 042°36'0 1.4 25.0
2015-May-05 15:37N 24°28' W 042°37'0 0.0 24.9
2015-May-05 14:30N 24°28' W 042°37'0 0.0 24.7
2015-May-05 13:46N 24°28' W 042°37'0 0.0 24.8
2015-May-05 13:43N 24°28' W 042°37'1 0.6 24.8
2015-May-05 12:54N 24°27' W 042°36'0 1.3 24.5
2015-May-05 12:45N 24°27' W 042°36'0 0.0 24.5
2015-May-05 12:07N 24°27' W 042°36'0 0.0 24.4
2015-May-05 12:04N 24°27' W 042°36'0 3.4 24.4
2015-May-05 12:00N 24°27' W 042°36'0 4.5 24.4
2015-May-05 11:57N 24°27' W 042°36'0 0.0 24.4
2015-May-05 11:09N 24°27' W 042°36'0 7.9
2015-May-05 11:07N 24°27' W 042°36'0 0.0 24.2
2015-May-05 09:54N 24°27' W 042°36'1 1.0 24.1
2015-May-05 08:52N 24°27' W 042°35'0 2.7 24.1
2015-May-05 08:48N 24°26' W 042°35'0 0.0 24.1
2015-May-05 08:21N 24°26' W 042°35'0 0.4 24.1
2015-May-05 07:13N 24°27' W 042°34'0 1.6
2015-May-05 07:09N 24°27' W 042°34'116.6 24.0
2015-May-05 07:06N 24°27' W 042°33'0 0.0 24.1
2015-May-05 06:07N 24°27' W 042°33'0 2.2 24.0
2015-May-05 06:04N 24°27' W 042°33'1 9.8 24.0
2015-May-05 05:58N 24°27' W 042°32'0 0.0 24.0
2015-May-05 04:30N 24°27' W 042°32'1 8.7 24.1
2015-May-05 04:24N 24°27' W 042°33'215.6 24.1
2015-May-05 04:16N 24°27' W 042°30'0 0.0
2015-May-05 01:18N 24°27' W 042°30'1 0.9 24.3
2015-May-05 00:24N 24°28' W 042°30'0 0.4 24.4
2015-May-04 23:39N 24°28' W 042°29'0 0.0
2015-May-04 23:37N 24°28' W 042°29'0 1.1 24.5
2015-May-04 23:34N 24°28' W 042°29'113.1 24.5
2015-May-04 23:30N 24°28' W 042°28'0 0.0 24.5
2015-May-04 22:46N 24°28' W 042°28'223.1 24.5
2015-May-04 22:42N 24°29' W 042°27'1 0.2 24.5
2015-May-04 20:39N 24°29' W 042°27'0 0.0 25.3
2015-May-04 20:27N 24°29' W 042°27'1 0.5 25.3
2015-May-04 17:39N 24°30' W 042°26'1 0.6 25.2
2015-May-04 15:58N 24°31' W 042°26'0 0.0 25.1
2015-May-04 15:54N 24°31' W 042°26'0 0.1 25.0
2015-May-04 14:04N 24°31' W 042°26'0 0.1 24.6
2015-May-04 11:30N 24°31' W 042°26'0 4.9 23.9
2015-May-04 11:24N 24°31' W 042°26'0 0.0 23.9
2015-May-04 10:27N 24°31' W 042°26'1 0.8 23.9
2015-May-04 09:04N 24°30' W 042°24'0 7.7 23.9
2015-May-04 09:01N 24°30' W 042°24'1 0.5 23.9
2015-May-04 06:18N 24°30' W 042°23'0 3.0 24.0
2015-May-04 06:13N 24°30' W 042°22'1 8.9 24.0
2015-May-04 06:09N 24°30' W 042°22'0 0.1
2015-May-04 04:36N 24°30' W 042°22'2 0.5 24.2
2015-May-04 00:49N 24°31' W 042°20'0 0.4 24.4
2015-May-04 00:03N 24°31' W 042°20'0 1.7 24.4
2015-May-03 23:54N 24°31' W 042°20'2 2.7 24.5
2015-May-03 23:00N 24°32' W 042°18'0 0.0 24.5
2015-May-03 21:06N 24°32' W 042°18'1 0.8 25.0
2015-May-03 20:03N 24°32' W 042°17'0 3.0 25.0
2015-May-03 19:54N 24°32' W 042°17'0 0.3
2015-May-03 18:54N 24°32' W 042°17'1 1.1 25.3
2015-May-03 17:51N 24°33' W 042°16'0 0.3 25.5
2015-May-03 16:09N 24°33' W 042°15'2 0.5 25.2
2015-May-03 12:42N 24°34' W 042°14'1 0.4 24.1
2015-May-03 11:04N 24°35' W 042°14'0 0.0 23.9
2015-May-03 09:52N 24°35' W 042°14'0 1.4 23.9
2015-May-03 09:42N 24°35' W 042°13'0 0.8
2015-May-03 09:22N 24°34' W 042°13'017.0 23.9
2015-May-03 09:21N 24°35' W 042°13'0 3.5 23.9
2015-May-03 09:18N 24°35' W 042°13'0 7.7 23.9
2015-May-03 09:15N 24°35' W 042°13'0 4.0 23.9
2015-May-03 09:09N 24°35' W 042°13'0 0.5 23.9
2015-May-03 08:06N 24°35' W 042°13'1 0.6 23.8
2015-May-03 06:30N 24°35' W 042°12'1 4.4 23.7
2015-May-03 06:21N 24°35' W 042°11'1 0.3 23.7
2015-May-03 01:04N 24°35' W 042°09'2 0.4 23.9
2015-May-02 20:49N 24°35' W 042°08'2 1.3 24.5
2015-May-02 19:09N 24°37' W 042°06'0 0.0 24.8
2015-May-02 18:07N 24°37' W 042°06'0 0.6 25.1
2015-May-02 18:01N 24°37' W 042°06'1 0.4 25.1
2015-May-02 16:09N 24°38' W 042°06'0 0.0 24.8
2015-May-02 13:54N 24°38' W 042°06'1 0.9 24.5
2015-May-02 13:09N 24°38' W 042°05'0 0.3 24.2
2015-May-02 12:09N 24°39' W 042°06'0 7.0 24.2
2015-May-02 12:06N 24°39' W 042°05'1 0.3 24.2
2015-May-02 10:16N 24°38' W 042°06'2 0.4 23.8
2015-May-02 04:54N 24°39' W 042°04'2 1.0 23.9
2015-May-02 03:16N 24°40' W 042°02'0 0.1 23.9
2015-May-01 23:48N 24°41' W 042°03'0 0.4 24.0
2015-May-01 23:01N 24°41' W 042°02'217.5 24.1
2015-May-01 22:54N 24°42' W 042°01'1 1.7 24.1
2015-May-01 22:06N 24°41' W 042°02'0 0.0 24.1
2015-May-01 21:52N 24°41' W 042°02'0 0.0 24.1
2015-May-01 21:00N 24°41' W 042°02'3 0.5 24.1
2015-May-01 14:49N 24°43' W 041°59'2 0.5 24.1
2015-May-01 10:51N 24°45' W 041°58'0 0.0 23.6
2015-May-01 10:22N 24°45' W 041°58'0 0.0 23.6
2015-May-01 09:40N 24°45' W 041°58'1 0.8 23.6
2015-May-01 08:54N 24°44' W 041°58'1 4.9 23.6
2015-May-01 08:46N 24°45' W 041°58'0 0.4 23.6
2015-May-01 07:58N 24°45' W 041°58'0 0.1 23.6
2015-May-01 07:04N 24°45' W 041°58'0 0.6 23.6
2015-May-01 06:18N 24°45' W 041°58'0 0.1 23.6
2015-May-01 05:09N 24°45' W 041°58'111.1 23.6
2015-May-01 05:03N 24°46' W 041°57'0 0.0 23.6
2015-May-01 03:28N 24°46' W 041°57'1 0.4 23.7
2015-May-01 01:46N 24°47' W 041°57'1 0.3 23.7
2015-Apr-30 23:13N 24°47' W 041°56'0 0.2 23.8
2015-Apr-30 21:09N 24°47' W 041°56'0 0.3 23.9
2015-Apr-30 19:54N 24°47' W 041°55'0 1.1 23.9
2015-Apr-30 19:31N 24°47' W 041°56'0 0.8 24.0
2015-Apr-30 18:57N 24°47' W 041°56'1 1.8 24.0
2015-Apr-30 18:22N 24°48' W 041°55'0 0.0 24.2
2015-Apr-30 18:19N 24°48' W 041°55'1 2.9 24.2
2015-Apr-30 17:51N 24°48' W 041°54'0 0.0 24.3
2015-Apr-30 16:43N 24°48' W 041°54'0 0.0 24.4
2015-Apr-30 16:39N 24°48' W 041°54'0 0.0 24.4
2015-Apr-30 15:01N 24°48' W 041°54'1 1.7 24.1
2015-Apr-30 14:33N 24°49' W 041°54'0 0.0 24.0
2015-Apr-30 13:48N 24°49' W 041°54'1 0.7 24.0
2015-Apr-30 12:51N 24°50' W 041°53'110.6 23.9
2015-Apr-30 12:48N 24°50' W 041°54'0 0.0 23.9
2015-Apr-30 12:09N 24°50' W 041°54'0 0.0 23.7
2015-Apr-30 12:06N 24°50' W 041°54'0 3.6 23.6
2015-Apr-30 12:00N 24°51' W 041°54'0 0.0 23.6
2015-Apr-30 11:13N 24°51' W 041°54'1 0.4 23.5
2015-Apr-30 09:52N 24°51' W 041°54'0 4.2 23.4
2015-Apr-30 09:48N 24°51' W 041°54'0 0.0 23.4
2015-Apr-30 09:25N 24°51' W 041°54'0 0.0 23.4
2015-Apr-30 09:16N 24°51' W 041°54'0 0.2 23.4
2015-Apr-30 08:09N 24°51' W 041°54'130.7 23.4
2015-Apr-30 08:07N 24°50' W 041°53'111.9 23.4
2015-Apr-30 08:03N 24°51' W 041°53'0 0.0 23.4
2015-Apr-30 07:42N 24°51' W 041°53'0 0.0 23.4
2015-Apr-30 07:37N 24°51' W 041°53'1 1.0 23.4
2015-Apr-30 07:01N 24°51' W 041°54'1 1.9 23.4
2015-Apr-30 06:28N 24°50' W 041°53'0 0.0 23.4
2015-Apr-30 05:21N 24°50' W 041°53'0 0.0 23.4
2015-Apr-30 05:12N 24°50' W 041°53'3 0.4
2015-Apr-29 21:04N 24°53' W 041°52'1 0.4 23.7
2015-Apr-29 18:03N 24°54' W 041°51'0 0.0 23.8
2015-Apr-29 16:54N 24°54' W 041°51'1 0.6 23.9
2015-Apr-29 15:12N 24°55' W 041°51'114.2 23.9
2015-Apr-29 15:09N 24°55' W 041°50'3 0.6 23.8
2015-Apr-29 10:01N 24°57' W 041°52'1 0.4 23.3
2015-Apr-29 08:19N 24°58' W 041°53'1 4.0 23.2
2015-Apr-29 08:06N 24°58' W 041°52'0 0.0 23.3
2015-Apr-29 07:07N 24°58' W 041°52'1 0.5 23.3
2015-Apr-29 03:54N 24°59' W 041°51'0 0.0 23.3
2015-Apr-29 00:52N 24°59' W 041°51'0 0.2 23.4
2015-Apr-29 00:06N 24°59' W 041°51'0 0.0 23.4
2015-Apr-29 00:01N 24°59' W 041°51'0 0.0 23.4
2015-Apr-28 23:57N 24°59' W 041°51'0 0.1 23.4
2015-Apr-28 23:07N 24°59' W 041°51'229.6 23.4
2015-Apr-28 23:03N 24°57' W 041°51'3 1.1 23.4
2015-Apr-28 20:49N 24°60' W 041°51'0 0.1 23.5
2015-Apr-28 19:54N 24°60' W 041°52'0 0.2 23.5
2015-Apr-28 18:15N 24°60' W 041°51'0 3.3 23.7
2015-Apr-28 18:07N 25°00' W 041°51'0 0.0 23.7
2015-Apr-28 17:06N 25°00' W 041°51'2 0.3 23.7
2015-Apr-28 11:54N 25°02' W 041°51'1 1.6 23.3
2015-Apr-28 11:09N 25°03' W 041°51'0 0.0 23.2
2015-Apr-28 10:15N 25°03' W 041°51'1 0.2 23.2
2015-Apr-28 06:58N 25°04' W 041°51'0 0.4 23.2
2015-Apr-28 05:42N 25°04' W 041°51'115.7 23.2
2015-Apr-28 05:37N 25°05' W 041°52'0 0.0 23.2
2015-Apr-28 04:06N 25°05' W 041°52'0 0.0 23.2
2015-Apr-28 04:03N 25°05' W 041°52'1 0.2 23.2
2015-Apr-27 20:12N 25°06' W 041°53'1 9.7 23.4
2015-Apr-27 20:07N 25°06' W 041°54'0 0.0 23.4
2015-Apr-27 19:49N 25°06' W 041°54'2 0.3 23.4
2015-Apr-27 13:54N 25°07' W 041°54'1 0.2 23.3
2015-Apr-27 08:54N 25°08' W 041°54'1 0.6 23.1
2015-Apr-27 07:18N 25°08' W 041°55'0 0.0 23.2
2015-Apr-27 07:07N 25°08' W 041°55'121.1 23.2
2015-Apr-27 07:04N 25°09' W 041°55'1 0.4 23.2
2015-Apr-27 05:52N 25°09' W 041°54'1 0.6 23.2
2015-Apr-27 04:09N 25°10' W 041°55'143.3 23.2
2015-Apr-27 04:07N 25°11' W 041°56'1 0.3 23.2
2015-Apr-27 00:45N 25°11' W 041°57'0 0.0 23.2
2015-Apr-26 23:54N 25°11' W 041°57'0 6.5 23.2
2015-Apr-26 23:51N 25°11' W 041°56'0 0.3 23.2
2015-Apr-26 23:04N 25°11' W 041°56'113.8 23.2
2015-Apr-26 22:58N 25°11' W 041°58'0 0.0 23.2
2015-Apr-26 22:09N 25°11' W 041°58'2 0.2 23.2
2015-Apr-26 10:54N 25°12' W 041°59'1 0.4 23.1
2015-Apr-26 09:18N 25°12' W 041°59'   23.1

Dump ship's entire track history